createdAt,value
2022-10-11T00:01:31.946Z,89030.84
2022-10-11T00:04:16.587Z,89020.88
2022-10-11T00:07:01.367Z,89033.78
2022-10-11T00:09:46.093Z,89030.97
2022-10-11T00:12:30.816Z,89030.97
2022-10-11T00:15:15.702Z,89029.78
2022-10-11T00:18:05.120Z,89037.63
2022-10-11T00:20:50.426Z,89038.66
2022-10-11T00:23:35.257Z,89035.31
2022-10-11T00:26:20.066Z,89038.25
2022-10-11T00:29:04.895Z,89036.84
2022-10-11T00:31:49.675Z,89039.28
2022-10-11T00:34:34.501Z,89041.19
2022-10-11T00:37:19.190Z,89046.56
2022-10-11T00:40:03.978Z,89043.75
2022-10-11T00:42:48.746Z,89046.16
2022-10-11T00:45:33.510Z,89036.22
2022-10-11T00:48:18.307Z,89036.56
2022-10-11T00:51:03.680Z,89043.69
2022-10-11T00:53:49.200Z,89037.56
2022-10-11T00:56:33.896Z,89040.25
2022-10-11T00:59:18.633Z,89043.38
2022-10-11T01:02:03.391Z,89032.91
2022-10-11T01:04:54.303Z,89037.94
2022-10-11T01:07:46.259Z,89029.59
2022-10-11T01:10:31.064Z,89036.94
2022-10-11T01:13:15.902Z,89032.53
2022-10-11T01:16:00.730Z,89036.28
2022-10-11T01:18:45.526Z,89030.38
2022-10-11T01:21:30.358Z,89036.94
2022-10-11T01:24:15.082Z,89038.84
2022-10-11T01:26:59.783Z,89036.81
2022-10-11T01:29:44.872Z,89035.22
2022-10-11T01:32:29.497Z,89031.06
2022-10-11T01:35:14.392Z,89028.25
2022-10-11T01:37:59.191Z,89027.22
2022-10-11T01:40:43.937Z,89027.94
2022-10-11T01:43:28.655Z,89032.34
2022-10-11T01:46:13.440Z,89027.09
2022-10-11T01:48:58.212Z,89020.84
2022-10-11T01:51:47.165Z,89019.78
2022-10-11T01:54:56.486Z,89018.38
2022-10-11T01:57:37.428Z,89011.53
2022-10-11T02:00:22.174Z,89011.75
2022-10-11T02:03:07.005Z,89013.28
2022-10-11T02:05:51.783Z,89005.13
2022-10-11T02:08:36.543Z,89007.91
2022-10-11T02:11:21.298Z,89009.81
2022-10-11T02:14:06.313Z,89006.19
2022-10-11T02:16:50.965Z,88999.22
2022-10-11T02:19:35.761Z,89000.75
2022-10-11T02:22:20.622Z,88995.16
2022-10-11T02:25:05.442Z,88993.56
2022-10-11T02:27:50.128Z,88993.38
2022-10-11T02:30:34.869Z,89000.00
2022-10-11T02:33:19.785Z,88993.75
2022-10-11T02:36:04.683Z,88992.34
2022-10-11T02:38:49.830Z,88993.50
2022-10-11T02:41:34.435Z,88986.50
2022-10-11T02:44:20.498Z,88985.41
2022-10-11T02:47:05.385Z,88991.41
2022-10-11T02:49:50.068Z,88984.97
2022-10-11T02:52:34.866Z,88987.91
2022-10-11T02:55:19.590Z,88982.66
2022-10-11T02:58:04.409Z,88986.50
2022-10-11T03:00:49.185Z,88984.59
2022-10-11T03:03:33.913Z,88982.84
2022-10-11T03:06:18.675Z,88991.91
2022-10-11T03:09:03.621Z,88987.19
2022-10-11T03:11:48.424Z,88983.00
2022-10-11T03:14:33.003Z,88986.63
2022-10-11T03:17:35.755Z,88986.25
2022-10-11T03:20:21.697Z,88989.06
2022-10-11T03:23:06.403Z,88990.59
2022-10-11T03:25:51.085Z,88989.22
2022-10-11T03:28:36.062Z,88995.50
2022-10-11T03:31:20.820Z,89000.63
2022-10-11T03:34:05.568Z,88996.28
2022-10-11T03:36:50.396Z,88995.41
2022-10-11T03:39:35.182Z,88991.34
2022-10-11T03:42:20.025Z,88991.56
2022-10-11T03:45:04.816Z,88991.88
2022-10-11T03:47:49.567Z,88991.81
2022-10-11T03:50:34.337Z,88990.00
2022-10-11T03:53:19.076Z,88991.72
2022-10-11T03:56:08.302Z,88992.94
2022-10-11T03:58:53.620Z,89002.38
2022-10-11T04:01:38.574Z,88996.25
2022-10-11T04:04:23.731Z,88990.66
2022-10-11T04:07:08.416Z,88993.97
2022-10-11T04:09:53.299Z,88989.75
2022-10-11T04:12:38.088Z,89000.03
2022-10-11T04:15:22.896Z,88997.09
2022-10-11T04:18:07.651Z,88999.00
2022-10-11T04:20:52.586Z,89003.50
2022-10-11T04:23:37.278Z,89001.09
2022-10-11T04:26:22.014Z,89006.72
2022-10-11T04:29:06.759Z,89010.22
2022-10-11T04:31:51.517Z,89011.31
2022-10-11T04:34:36.222Z,89021.75
2022-10-11T04:37:21.017Z,89019.47
2022-10-11T04:40:05.973Z,89008.69
2022-10-11T04:42:50.740Z,89014.44
2022-10-11T04:45:35.700Z,89013.22
2022-10-11T04:48:20.403Z,89014.13
2022-10-11T04:51:05.294Z,89017.06
2022-10-11T04:53:50.051Z,89023.50
2022-10-11T04:56:34.968Z,89024.09
2022-10-11T04:59:19.639Z,89022.91
2022-10-11T05:02:04.573Z,89021.47
2022-10-11T05:04:49.210Z,89021.47
2022-10-11T05:07:34.021Z,89027.53
2022-10-11T05:10:18.973Z,89027.84
2022-10-11T05:13:03.811Z,89019.63
2022-10-11T05:15:48.597Z,89023.66
2022-10-11T05:18:33.349Z,89026.69
2022-10-11T05:21:18.391Z,89016.75
2022-10-11T05:24:03.061Z,89017.06
2022-10-11T05:26:47.910Z,89015.16
2022-10-11T05:29:32.524Z,89022.47
2022-10-11T05:32:17.439Z,89010.72
2022-10-11T05:35:02.165Z,89019.28
2022-10-11T05:37:46.918Z,89011.75
2022-10-11T05:40:31.794Z,89008.94
2022-10-11T05:43:16.616Z,89007.84
2022-10-11T05:46:01.425Z,89013.94
2022-10-11T05:48:46.514Z,89016.06
2022-10-11T05:51:31.258Z,89020.47
2022-10-11T05:54:15.947Z,89026.59
2022-10-11T05:57:00.849Z,89023.47
2022-10-11T05:59:45.632Z,89022.97
2022-10-11T06:02:30.463Z,89016.03
2022-10-11T06:05:15.194Z,89027.59
2022-10-11T06:07:59.986Z,89029.50
2022-10-11T06:10:44.965Z,89028.97
2022-10-11T06:13:29.685Z,89031.16
2022-10-11T06:16:14.436Z,89031.75
2022-10-11T06:18:59.150Z,89034.97
2022-10-11T06:21:43.960Z,89041.38
2022-10-11T06:24:28.722Z,89044.59
2022-10-11T06:27:13.583Z,89045.28
2022-10-11T06:29:58.328Z,89044.59
2022-10-11T06:32:43.033Z,89040.25
2022-10-11T06:35:28.035Z,89040.16
2022-10-11T06:38:12.726Z,89043.94
2022-10-11T06:40:57.642Z,89043.13
2022-10-11T06:43:42.282Z,89037.06
2022-10-11T06:46:27.087Z,89055.50
2022-10-11T06:49:11.688Z,89050.97
2022-10-11T06:51:56.455Z,89060.09
2022-10-11T06:54:44.747Z,89059.06
2022-10-11T06:57:29.743Z,89061.41
2022-10-11T07:00:14.457Z,89066.16
2022-10-11T07:02:59.186Z,89066.22
2022-10-11T07:05:43.852Z,89060.19
2022-10-11T07:08:28.582Z,89060.16
2022-10-11T07:11:13.356Z,89060.31
2022-10-11T07:13:58.006Z,89062.66
2022-10-11T07:16:42.831Z,89065.03
2022-10-11T07:19:27.636Z,89064.41
2022-10-11T07:22:12.518Z,89062.38
2022-10-11T07:24:57.300Z,89066.47
2022-10-11T07:27:42.088Z,89063.84
2022-10-11T07:30:26.976Z,89071.91
2022-10-11T07:33:11.696Z,89073.50
2022-10-11T07:35:56.382Z,89065.50
2022-10-11T07:38:41.170Z,89065.81
2022-10-11T07:41:25.922Z,89065.13
2022-10-11T07:44:10.605Z,89068.81
2022-10-11T07:46:55.316Z,89062.84
2022-10-11T07:49:39.972Z,89067.59
2022-10-11T07:52:24.621Z,89064.94
2022-10-11T07:55:09.398Z,89063.16
2022-10-11T07:57:54.053Z,89067.50
2022-10-11T08:00:38.852Z,89065.16
2022-10-11T08:03:23.484Z,89065.66
2022-10-11T08:06:08.945Z,89070.19
2022-10-11T08:08:53.958Z,89067.78
2022-10-11T08:11:38.788Z,89070.22
2022-10-11T08:14:23.404Z,89068.06
2022-10-11T08:17:08.215Z,89074.34
2022-10-11T08:19:52.988Z,89072.75
2022-10-11T08:22:37.673Z,89085.50
2022-10-11T08:25:22.547Z,89077.16
2022-10-11T08:28:07.313Z,89070.91
2022-10-11T08:30:52.011Z,89071.06
2022-10-11T08:33:36.880Z,89072.41
2022-10-11T08:36:21.724Z,89076.56
2022-10-11T08:39:06.547Z,89073.53
2022-10-11T08:41:51.439Z,89071.56
2022-10-11T08:44:58.400Z,89070.81
2022-10-11T08:47:41.034Z,89071.13
2022-10-11T08:50:25.913Z,89059.41
2022-10-11T08:53:10.679Z,89059.13
2022-10-11T08:55:55.541Z,89064.56
2022-10-11T08:58:40.232Z,89062.22
2022-10-11T09:01:25.051Z,89053.50
2022-10-11T09:04:09.906Z,89057.19
2022-10-11T09:06:54.760Z,89052.28
2022-10-11T09:09:39.589Z,89054.06
2022-10-11T09:12:27.102Z,89053.28
2022-10-11T09:15:15.643Z,89053.78
2022-10-11T09:18:00.395Z,89055.97
2022-10-11T09:20:45.112Z,89052.59
2022-10-11T09:23:29.935Z,89054.56
2022-10-11T09:26:14.657Z,89051.03
2022-10-11T09:29:01.402Z,89047.84
2022-10-11T09:31:46.557Z,89045.53
2022-10-11T09:34:31.318Z,89044.72
2022-10-11T09:37:16.199Z,89041.25
2022-10-11T09:40:00.750Z,89046.09
2022-10-11T09:42:45.476Z,89042.22
2022-10-11T09:45:30.102Z,89040.88
2022-10-11T09:48:14.718Z,89027.69
2022-10-11T09:50:59.477Z,89032.38
2022-10-11T09:53:44.220Z,89029.31
2022-10-11T09:56:28.859Z,89028.19
2022-10-11T09:59:13.723Z,89026.69
2022-10-11T10:01:58.650Z,89019.03
2022-10-11T10:04:43.338Z,89023.22
2022-10-11T10:07:28.258Z,89020.22
2022-10-11T10:10:12.939Z,89023.41
2022-10-11T10:12:57.657Z,89023.06
2022-10-11T10:15:42.363Z,89020.13
2022-10-11T10:18:27.183Z,89010.03
2022-10-11T10:21:12.346Z,89015.38
2022-10-11T10:23:57.145Z,89016.88
2022-10-11T10:26:41.935Z,89014.47
2022-10-11T10:29:26.770Z,89010.81
2022-10-11T10:32:15.446Z,89005.75
2022-10-11T10:35:00.366Z,89000.13
2022-10-11T10:37:45.112Z,89002.16
2022-10-11T10:40:29.931Z,88999.88
2022-10-11T10:43:14.751Z,88997.31
2022-10-11T10:45:59.609Z,88982.91
2022-10-11T10:49:19.090Z,88988.00
2022-10-11T10:51:49.550Z,88993.34
2022-10-11T10:54:34.255Z,88993.09
2022-10-11T10:57:19.115Z,88983.47
2022-10-11T11:00:03.921Z,88982.03
2022-10-11T11:02:48.651Z,88988.06
2022-10-11T11:05:33.482Z,88983.34
2022-10-11T11:08:18.231Z,88976.59
2022-10-11T11:11:03.152Z,88978.81
2022-10-11T11:13:47.791Z,88976.19
2022-10-11T11:16:32.561Z,88976.66
2022-10-11T11:19:17.275Z,88968.88
2022-10-11T11:22:01.926Z,88968.09
2022-10-11T11:24:46.746Z,88960.19
2022-10-11T11:27:31.361Z,88965.25
2022-10-11T11:30:16.142Z,88961.16
2022-10-11T11:33:00.713Z,88960.00
2022-10-11T11:35:45.647Z,88951.81
2022-10-11T11:38:30.323Z,88959.81
2022-10-11T11:41:15.143Z,88956.44
2022-10-11T11:43:59.885Z,88958.28
2022-10-11T11:46:44.749Z,88951.25
2022-10-11T11:49:29.463Z,88945.72
2022-10-11T11:52:14.425Z,88947.72
2022-10-11T11:55:03.721Z,88947.00
2022-10-11T11:57:48.909Z,88952.75
2022-10-11T12:00:33.537Z,88943.97
2022-10-11T12:03:18.307Z,88940.16
2022-10-11T12:06:03.025Z,88941.56
2022-10-11T12:08:47.815Z,88942.69
2022-10-11T12:11:35.471Z,88936.63
2022-10-11T12:14:20.522Z,88936.16
2022-10-11T12:17:05.279Z,88938.81
2022-10-11T12:19:50.067Z,88936.34
2022-10-11T12:22:34.882Z,88934.28
2022-10-11T12:25:19.710Z,88930.41
2022-10-11T12:28:04.495Z,88924.03
2022-10-11T12:30:49.384Z,88927.69
2022-10-11T12:33:34.229Z,88926.59
2022-10-11T12:36:18.903Z,88923.44
2022-10-11T12:39:03.636Z,88916.63
2022-10-11T12:41:48.396Z,88917.63
2022-10-11T12:44:33.308Z,88913.91
2022-10-11T12:47:18.146Z,88915.53
2022-10-11T12:50:02.964Z,88911.19
2022-10-11T12:52:47.784Z,88912.00
2022-10-11T12:55:32.374Z,88903.63
2022-10-11T12:58:17.296Z,88899.75
2022-10-11T13:01:02.145Z,88902.66
2022-10-11T13:03:46.895Z,88899.06
2022-10-11T13:06:31.448Z,88901.44
2022-10-11T13:09:16.179Z,88898.97
2022-10-11T13:12:00.899Z,88894.41
2022-10-11T13:14:45.528Z,88893.84
2022-10-11T13:17:33.346Z,88890.50
2022-10-11T13:20:22.298Z,88889.81
2022-10-11T13:23:07.089Z,88888.84
2022-10-11T13:25:51.838Z,88888.59
2022-10-11T13:28:36.824Z,88888.19
2022-10-11T13:31:21.969Z,88888.03
2022-10-11T13:34:06.695Z,88889.31
2022-10-11T13:36:51.550Z,88885.16
2022-10-11T13:39:36.270Z,88879.47
2022-10-11T13:42:21.046Z,88884.88
2022-10-11T13:45:05.634Z,88876.50
2022-10-11T13:47:50.410Z,88878.19
2022-10-11T13:50:35.073Z,88871.38
2022-10-11T13:53:19.884Z,88872.91
2022-10-11T13:56:04.898Z,88861.91
2022-10-11T13:58:49.753Z,88858.00
2022-10-11T14:01:34.603Z,88865.94
2022-10-11T14:04:19.312Z,88862.34
2022-10-11T14:07:04.114Z,88863.44
2022-10-11T14:09:48.908Z,88861.09
2022-10-11T14:12:33.727Z,88859.16
2022-10-11T14:15:18.385Z,88852.19
2022-10-11T14:18:03.316Z,88857.75
2022-10-11T14:20:48.026Z,88853.47
2022-10-11T14:23:32.804Z,88853.31
2022-10-11T14:26:18.952Z,88848.56
2022-10-11T14:29:03.711Z,88854.41
2022-10-11T14:31:48.481Z,88846.34
2022-10-11T14:34:33.115Z,88856.94
2022-10-11T14:37:17.921Z,88856.09
2022-10-11T14:40:02.639Z,88861.09
2022-10-11T14:42:47.454Z,88863.88
2022-10-11T14:45:32.131Z,88868.72
2022-10-11T14:48:26.701Z,88866.34
2022-10-11T14:51:21.912Z,88867.03
2022-10-11T14:54:06.581Z,88869.00
2022-10-11T14:56:51.459Z,88859.13
2022-10-11T14:59:36.214Z,88860.22
2022-10-11T15:02:21.217Z,88866.50
2022-10-11T15:05:06.376Z,88864.81
2022-10-11T15:07:51.117Z,88865.66
2022-10-11T15:10:36.005Z,88866.22
2022-10-11T15:13:20.717Z,88864.38
2022-10-11T15:16:05.566Z,88862.69
2022-10-11T15:18:50.583Z,88861.84
2022-10-11T15:21:35.422Z,88861.31
2022-10-11T15:24:20.127Z,88860.88
2022-10-11T15:27:04.932Z,88860.88
2022-10-11T15:29:49.614Z,88854.19
2022-10-11T15:32:34.496Z,88858.25
2022-10-11T15:35:19.348Z,88860.28
2022-10-11T15:38:04.142Z,88857.34
2022-10-11T15:40:48.894Z,88856.38
2022-10-11T15:43:33.972Z,88856.09
2022-10-11T15:46:18.895Z,88866.00
2022-10-11T15:49:06.774Z,88854.91
2022-10-11T15:51:51.801Z,88861.84
2022-10-11T15:54:36.547Z,88860.28
2022-10-11T15:57:21.434Z,88859.13
2022-10-11T16:00:06.161Z,88858.41
2022-10-11T16:02:50.845Z,88864.06
2022-10-11T16:05:35.532Z,88865.88
2022-10-11T16:08:20.442Z,88860.13
2022-10-11T16:11:05.166Z,88874.66
2022-10-11T16:13:49.852Z,88872.75
2022-10-11T16:16:34.661Z,88871.91
2022-10-11T16:19:19.372Z,88881.31
2022-10-11T16:22:04.062Z,88882.59
2022-10-11T16:24:48.958Z,88881.16
2022-10-11T16:27:33.750Z,88876.66
2022-10-11T16:30:18.506Z,88885.25
2022-10-11T16:33:03.214Z,88891.34
2022-10-11T16:35:48.037Z,88894.81
2022-10-11T16:38:32.714Z,88899.91
2022-10-11T16:41:17.592Z,88901.91
2022-10-11T16:44:02.342Z,88904.72
2022-10-11T16:46:47.044Z,88906.28
2022-10-11T16:49:31.876Z,88908.91
2022-10-11T16:52:16.563Z,88914.69
2022-10-11T16:55:01.485Z,88911.81
2022-10-11T16:57:46.229Z,88912.94
2022-10-11T17:00:31.088Z,88924.91
2022-10-11T17:03:15.697Z,88927.22
2022-10-11T17:06:01.063Z,88923.53
2022-10-11T17:08:45.761Z,88928.94
2022-10-11T17:11:30.615Z,88928.78
2022-10-11T17:14:15.236Z,88939.34
2022-10-11T17:17:00.205Z,88935.72
2022-10-11T17:19:45.659Z,88932.38
2022-10-11T17:22:30.756Z,88939.91
2022-10-11T17:25:15.497Z,88937.97
2022-10-11T17:28:00.324Z,88944.25
2022-10-11T17:30:45.123Z,88946.22
2022-10-11T17:33:29.800Z,88946.06
2022-10-11T17:36:14.615Z,88947.63
2022-10-11T17:38:59.377Z,88944.44
2022-10-11T17:41:44.265Z,88946.38
2022-10-11T17:44:29.108Z,88951.28
2022-10-11T17:47:13.729Z,88948.50
2022-10-11T17:49:58.533Z,88949.72
2022-10-11T17:52:43.309Z,88952.66
2022-10-11T17:55:28.119Z,88956.75
2022-10-11T17:58:12.727Z,88959.69
2022-10-11T18:00:57.545Z,88960.63
2022-10-11T18:03:42.312Z,88957.50
2022-10-11T18:06:27.116Z,88960.66
2022-10-11T18:09:11.717Z,88958.03
2022-10-11T18:11:56.388Z,88968.00
2022-10-11T18:14:41.122Z,88966.13
2022-10-11T18:17:25.890Z,88959.09
2022-10-11T18:20:10.805Z,88957.00
2022-10-11T18:22:55.617Z,88950.41
2022-10-11T18:25:40.486Z,88952.34
2022-10-11T18:28:25.123Z,88952.34
2022-10-11T18:31:13.285Z,88961.88
2022-10-11T18:33:58.856Z,88962.59
2022-10-11T18:36:43.663Z,88958.94
2022-10-11T18:39:28.560Z,88962.63
2022-10-11T18:42:13.228Z,88962.94
2022-10-11T18:44:58.083Z,88967.34
2022-10-11T18:47:43.157Z,88968.78
2022-10-11T18:50:27.890Z,88975.09
2022-10-11T18:53:12.534Z,88974.94
2022-10-11T18:55:57.378Z,88974.94
2022-10-11T18:58:42.184Z,88989.13
2022-10-11T19:01:27.062Z,88992.84
2022-10-11T19:04:11.637Z,88989.88
2022-10-11T19:06:56.280Z,88993.53
2022-10-11T19:09:41.016Z,88994.59
2022-10-11T19:12:25.759Z,88999.47
2022-10-11T19:15:10.550Z,88995.63
2022-10-11T19:17:55.314Z,88997.91
2022-10-11T19:20:40.199Z,89002.13
2022-10-11T19:23:25.011Z,88998.97
2022-10-11T19:26:09.865Z,88997.75
2022-10-11T19:28:54.723Z,88996.53
2022-10-11T19:31:39.968Z,89000.53
2022-10-11T19:34:24.714Z,88996.31
2022-10-11T19:37:09.392Z,88993.88
2022-10-11T19:39:54.274Z,88996.16
2022-10-11T19:42:39.125Z,89001.06
2022-10-11T19:45:24.200Z,88999.88
2022-10-11T19:48:08.999Z,89002.13
2022-10-11T19:50:53.685Z,89004.06
2022-10-11T19:53:38.559Z,89005.28
2022-10-11T19:56:23.796Z,89004.38
2022-10-11T19:59:08.685Z,89002.91
2022-10-11T20:01:53.544Z,89011.69
2022-10-11T20:04:54.261Z,89012.75
2022-10-11T20:07:39.133Z,89013.31
2022-10-11T20:10:23.821Z,89012.78
2022-10-11T20:13:08.555Z,89017.00
2022-10-11T20:15:53.347Z,89023.28
2022-10-11T20:18:38.765Z,89022.94
2022-10-11T20:21:23.463Z,89016.47
2022-10-11T20:24:08.455Z,89022.78
2022-10-11T20:26:53.375Z,89016.81
2022-10-11T20:29:38.573Z,89029.25
2022-10-11T20:32:23.351Z,89022.38
2022-10-11T20:35:08.221Z,89019.06
2022-10-11T20:37:52.926Z,89032.38
2022-10-11T20:40:37.718Z,89035.66
2022-10-11T20:43:22.589Z,89029.63
2022-10-11T20:46:07.373Z,89032.81
2022-10-11T20:48:52.203Z,89030.38
2022-10-11T20:51:36.778Z,89029.88
2022-10-11T20:54:21.683Z,89027.97
2022-10-11T20:57:06.475Z,89031.66
2022-10-11T20:59:51.189Z,89032.72
2022-10-11T21:02:35.785Z,89028.50
2022-10-11T21:05:20.624Z,89030.59
2022-10-11T21:08:05.358Z,89033.41
2022-10-11T21:10:50.115Z,89032.00
2022-10-11T21:13:34.858Z,89030.78
2022-10-11T21:16:19.726Z,89027.44
2022-10-11T21:19:04.581Z,89034.78
2022-10-11T21:21:53.539Z,89031.41
2022-10-11T21:24:39.163Z,89033.50
2022-10-11T21:27:23.976Z,89027.81
2022-10-11T21:30:08.746Z,89024.38
2022-10-11T21:32:53.648Z,89027.03
2022-10-11T21:35:38.507Z,89027.09
2022-10-11T21:38:23.112Z,89031.50
2022-10-11T21:41:07.901Z,89031.50
2022-10-11T21:43:52.630Z,89029.22
2022-10-11T21:47:04.908Z,89035.53
2022-10-11T21:49:42.226Z,89035.91
2022-10-11T21:52:26.965Z,89035.72
2022-10-11T21:55:11.731Z,89034.34
2022-10-11T21:57:56.507Z,89027.13
2022-10-11T22:00:41.182Z,89035.88
2022-10-11T22:03:26.450Z,89035.53
2022-10-11T22:06:11.206Z,89033.78
2022-10-11T22:08:56.073Z,89037.13
2022-10-11T22:11:40.994Z,89037.28
2022-10-11T22:14:25.728Z,89045.50
2022-10-11T22:17:10.487Z,89033.94
2022-10-11T22:19:55.207Z,89034.69
2022-10-11T22:22:40.015Z,89034.69
2022-10-11T22:25:24.686Z,89028.38
2022-10-11T22:28:09.649Z,89022.44
2022-10-11T22:30:54.316Z,89028.69
2022-10-11T22:33:39.238Z,89020.13
2022-10-11T22:36:23.889Z,89021.19
2022-10-11T22:39:08.752Z,89025.03
2022-10-11T22:41:53.607Z,89029.25
2022-10-11T22:44:38.364Z,89030.28
2022-10-11T22:47:23.212Z,89022.78
2022-10-11T22:50:07.938Z,89028.53
2022-10-11T22:52:52.826Z,89026.78
2022-10-11T22:55:37.458Z,89028.19
2022-10-11T22:58:22.273Z,89031.00
2022-10-11T23:01:06.949Z,89023.28
2022-10-11T23:03:51.731Z,89023.13
2022-10-11T23:06:36.466Z,89027.84
2022-10-11T23:09:21.327Z,89024.69
2022-10-11T23:12:06.079Z,89029.94
2022-10-11T23:14:50.916Z,89029.06
2022-10-11T23:17:36.025Z,89027.84
2022-10-11T23:20:21.017Z,89033.25
2022-10-11T23:23:05.870Z,89035.00
2022-10-11T23:25:50.580Z,89037.25
2022-10-11T23:28:35.502Z,89039.53
2022-10-11T23:31:20.603Z,89037.41
2022-10-11T23:34:05.340Z,89041.13
2022-10-11T23:36:50.242Z,89038.81
2022-10-11T23:39:34.907Z,89042.66
2022-10-11T23:42:19.831Z,89049.84
2022-10-11T23:45:04.604Z,89051.44
2022-10-11T23:47:49.431Z,89048.09
2022-10-11T23:50:34.250Z,89049.50
2022-10-11T23:53:18.936Z,89046.19
2022-10-11T23:56:03.612Z,89049.00
2022-10-11T23:58:48.344Z,89044.59
